createdAt,value
2019-04-03T00:02:21.020Z,93.40
2019-04-03T00:07:17.656Z,93.70
2019-04-03T00:12:13.452Z,93.70
2019-04-03T00:17:10.674Z,93.80
2019-04-03T00:22:06.389Z,94.10
2019-04-03T00:27:02.176Z,94.70
2019-04-03T00:31:57.842Z,94.90
2019-04-03T00:36:53.729Z,94.90
2019-04-03T00:41:50.669Z,94.80
2019-04-03T00:46:46.713Z,95.00
2019-04-03T00:51:42.521Z,95.10
2019-04-03T00:56:39.365Z,95.20
2019-04-03T01:01:35.097Z,95.30
2019-04-03T01:06:30.789Z,95.40
2019-04-03T01:11:26.784Z,95.60
2019-04-03T01:16:22.720Z,95.80
2019-04-03T01:21:18.296Z,95.70
2019-04-03T01:26:13.950Z,95.70
2019-04-03T01:31:09.520Z,95.50
2019-04-03T01:36:05.219Z,96.10
2019-04-03T01:41:00.935Z,96.20
2019-04-03T01:45:57.271Z,96.30
2019-04-03T01:50:53.180Z,96.50
2019-04-03T01:55:48.853Z,96.70
2019-04-03T02:00:44.508Z,97.10
2019-04-03T02:05:41.553Z,97.40
2019-04-03T02:10:37.579Z,97.50
2019-04-03T02:15:33.147Z,97.60
2019-04-03T02:20:28.708Z,97.50
2019-04-03T02:25:24.273Z,97.50
2019-04-03T02:30:19.930Z,97.60
2019-04-03T02:35:18.453Z,97.70
2019-04-03T02:40:13.993Z,97.80
2019-04-03T02:45:09.769Z,97.90
2019-04-03T02:50:06.430Z,97.90
2019-04-03T02:55:06.723Z,98.10
2019-04-03T03:00:01.039Z,98.20
2019-04-03T03:04:58.062Z,98.10
2019-04-03T03:09:54.844Z,98.30
2019-04-03T03:14:51.649Z,98.20
2019-04-03T03:19:49.807Z,98.40
2019-04-03T03:24:46.613Z,98.30
2019-04-03T03:29:42.284Z,98.60
2019-04-03T03:34:54.836Z,98.50
2019-04-03T03:39:37.137Z,98.70
2019-04-03T03:44:33.326Z,98.80
2019-04-03T03:49:31.067Z,99.20
2019-04-03T03:54:28.786Z,99.30
2019-04-03T03:59:26.251Z,99.30
2019-04-03T04:04:22.175Z,99.40
2019-04-03T04:09:18.804Z,99.60
2019-04-03T04:14:15.073Z,99.80
2019-04-03T04:19:11.041Z,99.90
2019-04-03T04:24:06.802Z,99.90
2019-04-03T04:29:02.589Z,99.90
2019-04-03T04:33:58.187Z,99.90
2019-04-03T04:38:53.994Z,99.90
2019-04-03T04:43:49.693Z,99.90
2019-04-03T04:48:45.380Z,99.90
2019-04-03T04:53:41.044Z,99.90
2019-04-03T04:58:37.736Z,99.90
2019-04-03T05:03:33.331Z,99.90
2019-04-03T05:08:29.148Z,99.90
2019-04-03T05:13:26.029Z,99.80
2019-04-03T05:18:21.713Z,99.80
2019-04-03T05:23:17.460Z,99.90
2019-04-03T05:28:13.125Z,99.90
2019-04-03T05:33:10.643Z,99.90
2019-04-03T05:38:06.204Z,99.90
2019-04-03T05:43:01.810Z,99.90
2019-04-03T05:47:57.695Z,99.90
2019-04-03T05:52:53.764Z,99.90
2019-04-03T05:57:49.501Z,99.80
2019-04-03T06:02:45.176Z,99.40
2019-04-03T06:07:41.222Z,99.00
2019-04-03T06:12:37.825Z,98.80
2019-04-03T06:17:33.483Z,98.70
2019-04-03T06:22:29.247Z,98.20
2019-04-03T06:27:27.492Z,97.60
2019-04-03T06:32:24.592Z,97.10
2019-04-03T06:37:21.653Z,96.60
2019-04-03T06:42:17.443Z,96.30
2019-04-03T06:47:13.265Z,96.10
2019-04-03T06:52:08.875Z,94.70
2019-04-03T06:57:04.771Z,94.40
2019-04-03T07:02:00.440Z,93.40
2019-04-03T07:06:56.666Z,92.70
2019-04-03T07:11:52.479Z,92.50
2019-04-03T07:16:48.188Z,91.30
2019-04-03T07:21:43.856Z,90.90
2019-04-03T07:26:39.490Z,90.80
2019-04-03T07:31:35.294Z,90.20
2019-04-03T07:36:31.035Z,89.60
2019-04-03T07:41:26.892Z,85.70
2019-04-03T07:46:22.857Z,81.70
2019-04-03T07:51:18.470Z,78.90
2019-04-03T07:56:14.337Z,77.90
2019-04-03T08:01:11.082Z,76.10
2019-04-03T08:06:06.945Z,75.90
2019-04-03T08:11:03.460Z,78.00
2019-04-03T08:15:59.300Z,76.70
2019-04-03T08:20:56.931Z,75.50
2019-04-03T08:25:54.289Z,75.50
2019-04-03T08:30:49.652Z,74.20
2019-04-03T08:35:45.377Z,73.40
2019-04-03T08:40:40.941Z,72.70
2019-04-03T08:45:38.525Z,73.90
2019-04-03T08:50:35.865Z,70.90
2019-04-03T08:55:35.126Z,70.80
2019-04-03T09:00:32.153Z,70.30
2019-04-03T09:05:28.438Z,65.00
2019-04-03T09:10:24.595Z,60.50
2019-04-03T09:15:20.547Z,59.70
2019-04-03T09:20:16.357Z,60.30
2019-04-03T09:25:13.771Z,59.40
2019-04-03T09:30:15.447Z,57.00
2019-04-03T09:35:10.821Z,56.50
2019-04-03T09:40:07.415Z,56.80
2019-04-03T09:45:03.166Z,54.50
2019-04-03T09:49:58.862Z,53.70
2019-04-03T09:54:54.565Z,53.70
2019-04-03T09:59:50.237Z,53.70
2019-04-03T10:04:45.936Z,54.20
2019-04-03T10:09:43.878Z,53.70
2019-04-03T10:14:39.205Z,55.00
2019-04-03T10:19:36.705Z,54.30
2019-04-03T10:24:32.516Z,53.80
2019-04-03T10:29:28.491Z,52.80
2019-04-03T10:34:24.662Z,51.30
2019-04-03T10:39:20.782Z,50.80
2019-04-03T10:44:16.576Z,49.80
2019-04-03T10:49:12.156Z,49.00
2019-04-03T10:54:08.816Z,49.00
2019-04-03T10:59:11.710Z,48.30
2019-04-03T11:04:01.993Z,46.80
2019-04-03T11:08:57.880Z,45.80
2019-04-03T11:13:54.299Z,45.20
2019-04-03T11:18:59.275Z,44.90
2019-04-03T11:23:47.977Z,43.80
2019-04-03T11:28:43.752Z,43.70
2019-04-03T11:33:39.339Z,43.20
2019-04-03T11:38:36.129Z,44.40
2019-04-03T11:43:35.375Z,45.00
2019-04-03T11:48:31.249Z,44.90
2019-04-03T11:53:27.110Z,45.50
2019-04-03T11:58:22.873Z,44.50
2019-04-03T12:03:19.735Z,43.30
2019-04-03T12:08:15.425Z,43.10
2019-04-03T12:13:13.611Z,42.80
2019-04-03T12:18:08.580Z,41.30
2019-04-03T12:23:04.401Z,37.00
2019-04-03T12:28:00.096Z,33.20
2019-04-03T12:32:58.454Z,33.60
2019-04-03T12:37:54.514Z,33.30
2019-04-03T12:42:50.238Z,32.40
2019-04-03T12:47:45.870Z,31.50
2019-04-03T12:52:43.505Z,31.30
2019-04-03T12:57:39.781Z,30.30
2019-04-03T13:02:35.928Z,30.70
2019-04-03T13:07:31.592Z,30.80
2019-04-03T13:12:27.904Z,30.00
2019-04-03T13:17:23.753Z,30.30
2019-04-03T13:22:19.669Z,28.80
2019-04-03T13:27:15.929Z,28.20
2019-04-03T13:32:11.545Z,27.40
2019-04-03T13:37:07.475Z,29.10
2019-04-03T13:42:03.184Z,29.90
2019-04-03T13:46:58.866Z,31.40
2019-04-03T13:51:56.276Z,32.20
2019-04-03T13:57:03.320Z,31.80
2019-04-03T14:01:58.992Z,32.80
2019-04-03T14:06:54.690Z,33.20
2019-04-03T14:11:50.385Z,33.30
2019-04-03T14:16:46.706Z,33.00
2019-04-03T14:21:42.368Z,33.90
2019-04-03T14:26:39.401Z,34.80
2019-04-03T14:31:37.359Z,33.60
2019-04-03T14:36:32.477Z,35.40
2019-04-03T14:41:28.184Z,36.90
2019-04-03T14:46:23.850Z,37.50
2019-04-03T14:51:19.521Z,38.60
2019-04-03T14:56:15.351Z,39.20
2019-04-03T15:01:11.082Z,37.40
2019-04-03T15:06:07.017Z,35.90
2019-04-03T15:11:03.819Z,33.40
2019-04-03T15:16:00.675Z,32.00
2019-04-03T15:20:56.821Z,29.10
2019-04-03T15:25:53.379Z,30.10
2019-04-03T15:30:49.051Z,30.10
2019-04-03T15:35:44.775Z,29.60
2019-04-03T15:40:41.376Z,31.90
2019-04-03T15:45:37.059Z,32.90
2019-04-03T15:50:36.333Z,36.00
2019-04-03T15:55:29.977Z,38.10
2019-04-03T16:00:26.468Z,39.00
2019-04-03T16:05:22.379Z,39.10
2019-04-03T16:10:18.484Z,34.30
2019-04-03T16:15:15.684Z,32.00
2019-04-03T16:20:11.699Z,30.90
2019-04-03T16:25:10.104Z,31.80
2019-04-03T16:30:14.858Z,34.60
2019-04-03T16:35:12.591Z,37.60
2019-04-03T16:40:09.060Z,39.60
2019-04-03T16:45:08.447Z,40.90
2019-04-03T16:50:05.925Z,40.70
2019-04-03T16:55:05.457Z,41.00
2019-04-03T17:00:01.279Z,40.90
2019-04-03T17:04:58.390Z,41.50
2019-04-03T17:09:54.271Z,42.40
2019-04-03T17:14:52.927Z,42.70
2019-04-03T17:19:51.369Z,43.20
2019-04-03T17:24:49.522Z,43.30
2019-04-03T17:29:46.585Z,43.20
2019-04-03T17:34:43.936Z,44.40
2019-04-03T17:39:40.684Z,45.30
2019-04-03T17:44:38.357Z,46.50
2019-04-03T17:49:33.842Z,47.80
2019-04-03T17:54:29.563Z,48.90
2019-04-03T17:59:27.088Z,49.70
2019-04-03T18:04:22.790Z,50.00
2019-04-03T18:09:21.602Z,50.90
2019-04-03T18:14:17.312Z,51.90
2019-04-03T18:19:13.292Z,52.30
2019-04-03T18:24:09.383Z,52.50
2019-04-03T18:29:06.632Z,53.60
2019-04-03T18:34:04.801Z,54.00
2019-04-03T18:39:00.493Z,55.40
2019-04-03T18:43:59.076Z,55.50
2019-04-03T18:49:00.856Z,56.40
2019-04-03T18:53:52.265Z,58.10
2019-04-03T18:58:49.303Z,58.70
2019-04-03T19:03:44.949Z,59.70
2019-04-03T19:08:40.859Z,61.10
2019-04-03T19:13:36.945Z,62.40
2019-04-03T19:18:34.970Z,63.70
2019-04-03T19:23:30.735Z,65.30
2019-04-03T19:28:26.533Z,67.30
2019-04-03T19:33:22.240Z,68.80
2019-04-03T19:38:18.753Z,71.00
2019-04-03T19:43:15.366Z,72.90
2019-04-03T19:48:11.214Z,74.20
2019-04-03T19:53:08.084Z,75.90
2019-04-03T19:58:03.894Z,76.60
2019-04-03T20:02:59.584Z,77.30
2019-04-03T20:07:58.602Z,77.70
2019-04-03T20:12:52.629Z,78.30
2019-04-03T20:17:48.478Z,79.30
2019-04-03T20:22:44.995Z,80.20
2019-04-03T20:27:40.801Z,81.30
2019-04-03T20:32:39.953Z,83.80
2019-04-03T20:37:34.029Z,84.40
2019-04-03T20:42:29.626Z,84.20
2019-04-03T20:47:26.965Z,84.30
2019-04-03T20:52:22.612Z,84.10
2019-04-03T20:57:18.506Z,85.50
2019-04-03T21:02:14.548Z,86.40
2019-04-03T21:07:10.186Z,87.90
2019-04-03T21:12:06.455Z,88.10
2019-04-03T21:17:02.136Z,89.00
2019-04-03T21:21:59.625Z,90.10
2019-04-03T21:26:55.025Z,90.30
2019-04-03T21:31:51.632Z,90.80
2019-04-03T21:36:47.280Z,91.00
2019-04-03T21:41:42.981Z,91.30
2019-04-03T21:46:40.238Z,91.30
2019-04-03T21:51:37.227Z,91.60
2019-04-03T21:56:33.433Z,91.80
2019-04-03T22:01:29.187Z,92.20
2019-04-03T22:06:26.996Z,92.50
2019-04-03T22:11:23.381Z,92.50
2019-04-03T22:16:20.404Z,92.80
2019-04-03T22:21:16.293Z,93.40
2019-04-03T22:26:12.107Z,94.30
2019-04-03T22:31:07.844Z,94.00
2019-04-03T22:36:04.093Z,93.90
2019-04-03T22:40:59.785Z,93.80
2019-04-03T22:45:55.525Z,94.00
2019-04-03T22:50:51.127Z,94.50
2019-04-03T22:55:47.074Z,95.00
2019-04-03T23:00:46.835Z,95.00
2019-04-03T23:05:42.473Z,95.10
2019-04-03T23:10:38.336Z,95.40
2019-04-03T23:15:35.581Z,95.50
2019-04-03T23:20:31.416Z,95.60
2019-04-03T23:25:29.791Z,95.40
2019-04-03T23:30:25.978Z,95.20
2019-04-03T23:35:21.687Z,95.50
2019-04-03T23:40:17.542Z,95.80
2019-04-03T23:45:15.551Z,96.10
2019-04-03T23:50:11.524Z,96.10
2019-04-03T23:55:07.790Z,96.30
